Time;durP1;ratioP1;P1;durP2;ratioP2;P2;SDS_P1;SDS_P2;PMS_P1;PMS_P2;Temp;Humidity;BMP_temperature;BMP_pressure;BME280_temperature;BME280_humidity;BME280_pressure;Samples;Min_cycle;Max_cycle;Signal;HPM_P1;HPM_P2
2023/08/19 00:00:56;;;;;;;51.25;46.40;;;564.10;2432.00;;;;;;4970132;28;20413;-64
2023/08/19 00:03:21;;;;;;;49.85;45.08;;;563.90;2432.00;;;;;;4969775;28;20031;-64
2023/08/19 00:05:47;;;;;;;46.30;41.85;;;563.90;2432.00;;;;;;4969395;28;20466;-65
2023/08/19 00:08:13;;;;;;;46.83;42.33;;;563.90;2432.00;;;;;;4969746;28;20240;-64
2023/08/19 00:10:42;;;;;;;47.58;43.13;;;563.90;2432.00;;;;;;4970256;28;20042;-65
2023/08/19 00:13:08;;;;;;;45.90;41.70;;;563.90;2432.00;;;;;;4973215;28;20410;-64
2023/08/19 00:15:34;;;;;;;44.20;39.83;;;563.90;2432.00;;;;;;4973054;28;20027;-65
2023/08/19 00:18:00;;;;;;;45.92;41.50;;;564.00;2432.00;;;;;;4973346;28;20568;-65
2023/08/19 00:20:28;;;;;;;43.55;39.47;;;564.00;2432.00;;;;;;4972599;28;20102;-65
2023/08/19 00:22:56;;;;;;;43.30;39.00;;;564.00;2432.00;;;;;;4972673;28;20069;-64
2023/08/19 00:25:25;;;;;;;44.88;40.03;;;564.00;2432.00;;;;;;4973250;28;20035;-63
2023/08/19 00:27:52;;;;;;;44.53;40.45;;;563.90;2432.00;;;;;;4973304;28;20031;-64
2023/08/19 00:30:18;;;;;;;44.08;39.97;;;563.90;2432.00;;;;;;4986072;28;20025;-65
2023/08/19 00:32:46;;;;;;;48.80;43.83;;;563.90;2432.00;;;;;;4972851;28;20106;-64
2023/08/19 00:35:13;;;;;;;46.42;41.50;;;563.80;2432.00;;;;;;4973142;28;20413;-65
2023/08/19 00:37:38;;;;;;;45.70;41.22;;;563.80;2432.00;;;;;;4973157;28;20477;-64
2023/08/19 00:40:05;;;;;;;45.35;41.25;;;563.80;2432.00;;;;;;4972458;28;20031;-65
2023/08/19 00:42:31;;;;;;;44.13;39.67;;;563.80;2432.00;;;;;;4972613;28;20062;-65
2023/08/19 00:44:56;;;;;;;42.80;38.83;;;563.80;2432.00;;;;;;4972492;28;20098;-63
2023/08/19 00:47:24;;;;;;;49.17;40.78;;;563.80;2432.00;;;;;;4985406;28;20026;-64
2023/08/19 00:49:50;;;;;;;43.20;38.75;;;563.80;2432.00;;;;;;4979422;28;20109;-65
2023/08/19 00:52:17;;;;;;;46.05;41.55;;;563.80;2432.00;;;;;;4978553;28;20055;-65
2023/08/19 00:54:43;;;;;;;45.58;41.38;;;563.80;2432.00;;;;;;4972373;28;20019;-63
2023/08/19 00:57:09;;;;;;;43.60;39.47;;;563.80;2432.00;;;;;;4972634;28;20030;-65
2023/08/19 00:59:35;;;;;;;46.28;41.95;;;563.90;2432.00;;;;;;4985030;28;20110;-65
2023/08/19 01:02:02;;;;;;;44.47;40.22;;;563.80;2432.00;;;;;;4972556;28;20038;-64
2023/08/19 01:04:27;;;;;;;44.60;40.47;;;563.80;2432.00;;;;;;4972136;28;20080;-66
2023/08/19 01:07:17;;;;;;;43.67;39.47;;;563.80;2432.00;;;;;;4971968;28;20027;-64
2023/08/19 01:09:54;;;;;;;43.40;39.10;;;563.70;2432.00;;;;;;4972176;28;20074;-65
2023/08/19 01:12:39;;;;;;;41.35;37.45;;;563.70;2432.00;;;;;;4976587;28;20078;-62
2023/08/19 01:15:13;;;;;;;46.20;41.67;;;563.70;2432.00;;;;;;4977605;28;20093;-65
2023/08/19 01:17:41;;;;;;;39.58;35.85;;;563.70;2432.00;;;;;;4972140;28;20500;-65
2023/08/19 01:20:09;;;;;;;42.13;38.00;;;563.70;2432.00;;;;;;4971689;28;20035;-67
2023/08/19 01:22:43;;;;;;;41.80;37.70;;;563.80;2432.00;;;;;;4971329;28;20023;-65
2023/08/19 01:25:10;;;;;;;40.83;36.97;;;563.80;2432.00;;;;;;4972030;28;20022;-65
2023/08/19 01:27:36;;;;;;;41.13;37.13;;;563.80;2432.00;;;;;;4982947;28;20109;-66
2023/08/19 01:30:02;;;;;;;36.83;33.38;;;563.80;2432.00;;;;;;4986379;28;20133;-65
2023/08/19 01:32:28;;;;;;;36.55;33.17;;;563.80;2432.00;;;;;;4972052;28;20023;-65
2023/08/19 01:34:54;;;;;;;36.05;32.47;;;563.80;2432.00;;;;;;4971332;28;20127;-66
2023/08/19 01:37:26;;;;;;;35.22;31.85;;;563.80;2432.00;;;;;;4971992;28;20023;-66
2023/08/19 01:39:55;;;;;;;32.70;29.60;;;563.80;2432.00;;;;;;4971391;28;20043;-66
2023/08/19 01:42:21;;;;;;;33.25;29.88;;;563.90;2432.00;;;;;;4971725;28;20022;-64
2023/08/19 01:44:48;;;;;;;35.30;31.95;;;563.90;2432.00;;;;;;4971702;28;20057;-66
2023/08/19 01:47:16;;;;;;;32.53;29.35;;;563.90;2432.00;;;;;;4953461;28;20436;-63
2023/08/19 01:49:46;;;;;;;32.72;29.33;;;563.90;2432.00;;;;;;4971615;28;20026;-65
2023/08/19 01:52:13;;;;;;;32.53;28.38;;;564.00;2432.00;;;;;;4971611;28;20030;-66
2023/08/19 01:54:39;;;;;;;32.63;29.15;;;564.00;2432.00;;;;;;4971553;28;20042;-65
2023/08/19 01:57:08;;;;;;;31.40;28.08;;;564.10;2432.00;;;;;;4971192;28;20105;-65
2023/08/19 01:59:34;;;;;;;29.10;26.35;;;564.10;2432.00;;;;;;4971071;28;20089;-64
2023/08/19 02:02:00;;;;;;;31.05;28.05;;;564.10;2432.00;;;;;;4971339;28;20469;-65
2023/08/19 02:04:26;;;;;;;29.30;26.40;;;564.10;2432.00;;;;;;4970823;28;20029;-67
2023/08/19 02:06:53;;;;;;;28.25;25.52;;;588.80;2432.00;;;;;;4971233;28;20477;-64
2023/08/19 02:09:18;;;;;;;26.98;24.38;;;588.80;2432.00;;;;;;4971456;28;20027;-63
2023/08/19 02:11:44;;;;;;;27.17;24.23;;;588.80;2432.00;;;;;;4977681;28;20525;-66
2023/08/19 02:14:10;;;;;;;28.55;25.83;;;588.80;2432.00;;;;;;4970955;28;20500;-65
2023/08/19 02:16:36;;;;;;;29.58;26.67;;;588.80;2432.00;;;;;;4970827;28;20095;-66
2023/08/19 02:19:01;;;;;;;25.42;23.05;;;588.80;2432.00;;;;;;4971139;28;20046;-65
2023/08/19 02:21:27;;;;;;;28.83;25.90;;;588.80;2432.00;;;;;;4970877;28;20097;-62
2023/08/19 02:23:53;;;;;;;28.48;25.80;;;588.80;2432.00;;;;;;4970738;28;20470;-63
2023/08/19 02:26:19;;;;;;;27.27;24.63;;;588.80;2432.00;;;;;;4970896;28;20025;-64
2023/08/19 02:28:45;;;;;;;26.75;24.08;;;588.80;2432.00;;;;;;4975252;28;20072;-64
2023/08/19 02:31:11;;;;;;;28.35;25.20;;;588.80;2432.00;;;;;;4979149;28;20067;-67
2023/08/19 02:33:38;;;;;;;26.48;23.80;;;588.80;2432.00;;;;;;4970292;28;20038;-64
2023/08/19 02:36:04;;;;;;;27.73;24.58;;;588.90;2432.00;;;;;;4969810;28;20073;-66
2023/08/19 02:38:30;;;;;;;27.50;24.58;;;588.90;2432.00;;;;;;4970766;28;20045;-63
2023/08/19 02:40:57;;;;;;;27.70;24.90;;;588.80;2432.00;;;;;;4983171;28;20030;-65
2023/08/19 02:43:22;;;;;;;29.50;26.63;;;588.90;2432.00;;;;;;4970854;28;20081;-67
2023/08/19 02:45:48;;;;;;;29.80;26.98;;;588.80;2432.00;;;;;;4970620;28;20015;-66
2023/08/19 02:48:15;;;;;;;32.65;29.55;;;564.10;2432.00;;;;;;4970398;28;20018;-64
2023/08/19 02:50:41;;;;;;;33.63;30.33;;;564.00;2432.00;;;;;;4970335;28;20114;-67
2023/08/19 02:53:07;;;;;;;36.28;32.40;;;563.90;2432.00;;;;;;4952737;28;20378;-64
2023/08/19 02:55:33;;;;;;;36.67;33.17;;;563.80;2432.00;;;;;;4970638;28;20027;-63
2023/08/19 02:58:00;;;;;;;37.20;33.55;;;563.70;2432.00;;;;;;4970234;28;20089;-65
2023/08/19 03:00:26;;;;;;;39.28;35.53;;;563.60;2432.00;;;;;;4970208;28;20025;-66
2023/08/19 03:02:52;;;;;;;42.70;38.05;;;563.50;2432.00;;;;;;4970713;28;20059;-66
2023/08/19 03:05:18;;;;;;;42.88;38.72;;;563.50;2432.00;;;;;;4970419;28;20034;-66
2023/08/19 03:07:43;;;;;;;45.65;41.20;;;563.60;2432.00;;;;;;4970025;28;20023;-65
2023/08/19 03:10:09;;;;;;;45.25;40.63;;;563.60;2432.00;;;;;;4970162;28;20050;-65
2023/08/19 03:12:35;;;;;;;42.25;38.17;;;563.70;2432.00;;;;;;4969925;28;20497;-62
2023/08/19 03:15:01;;;;;;;41.90;37.75;;;563.70;2432.00;;;;;;4970295;28;20042;-65
2023/08/19 03:17:26;;;;;;;40.90;36.95;;;563.70;2432.00;;;;;;4970218;28;20023;-63
2023/08/19 03:19:52;;;;;;;40.25;36.13;;;563.70;2432.00;;;;;;4970230;28;20081;-64
2023/08/19 03:22:18;;;;;;;39.08;35.35;;;563.70;2432.00;;;;;;4970391;28;20535;-63
2023/08/19 03:24:44;;;;;;;38.67;34.65;;;563.70;2432.00;;;;;;4969999;28;20496;-64
2023/08/19 03:27:09;;;;;;;39.50;35.60;;;563.70;2432.00;;;;;;4970315;28;20022;-65
2023/08/19 03:29:35;;;;;;;36.90;33.28;;;563.70;2432.00;;;;;;4963509;28;20049;-64
2023/08/19 03:32:01;;;;;;;37.65;33.97;;;563.70;2432.00;;;;;;4971450;28;20030;-64
2023/08/19 03:34:27;;;;;;;41.92;37.63;;;563.70;2432.00;;;;;;4969744;28;20382;-63
2023/08/19 03:36:53;;;;;;;36.75;33.28;;;563.70;2432.00;;;;;;4969742;28;20027;-64
2023/08/19 03:39:19;;;;;;;33.78;30.52;;;563.70;2432.00;;;;;;4970080;28;20047;-65
2023/08/19 03:41:44;;;;;;;35.97;32.28;;;563.60;2432.00;;;;;;4970035;28;20026;-65
2023/08/19 03:44:10;;;;;;;35.58;32.22;;;563.70;2432.00;;;;;;4982470;28;20034;-66
2023/08/19 03:46:36;;;;;;;36.30;32.78;;;563.70;2432.00;;;;;;4972057;28;20026;-64
2023/08/19 03:49:02;;;;;;;37.45;33.58;;;563.60;2432.00;;;;;;4973739;28;20034;-64
2023/08/19 03:51:29;;;;;;;36.58;32.92;;;563.60;2432.00;;;;;;4973475;28;20355;-65
2023/08/19 03:53:55;;;;;;;40.38;35.83;;;563.60;2432.00;;;;;;4973488;28;20432;-64
2023/08/19 03:56:21;;;;;;;40.03;36.25;;;563.40;2432.00;;;;;;4979569;28;20101;-65
2023/08/19 03:58:46;;;;;;;39.63;35.67;;;563.40;2432.00;;;;;;4979288;28;20035;-65
2023/08/19 04:01:12;;;;;;;39.03;35.08;;;563.50;2432.00;;;;;;4978224;28;20811;-67
2023/08/19 04:03:38;;;;;;;38.42;34.35;;;563.50;2432.00;;;;;;4973477;28;20027;-65
2023/08/19 04:06:04;;;;;;;43.13;38.92;;;563.50;2432.00;;;;;;4973315;28;20115;-65
2023/08/19 04:08:30;;;;;;;41.30;37.30;;;563.50;2432.00;;;;;;4986486;28;20022;-65
2023/08/19 04:11:03;;;;;;;41.80;37.72;;;563.60;2432.00;;;;;;4973332;28;20031;-63
2023/08/19 04:13:29;;;;;;;42.05;37.80;;;563.70;2432.00;;;;;;4973258;28;20097;-65
2023/08/19 04:16:01;;;;;;;40.33;36.50;;;563.80;2432.00;;;;;;4973202;28;20039;-65
2023/08/19 04:18:27;;;;;;;42.80;38.60;;;563.90;2432.00;;;;;;4972902;28;20165;-65
2023/08/19 04:20:52;;;;;;;43.08;38.90;;;563.90;2432.00;;;;;;4973301;28;20550;-66
2023/08/19 04:23:18;;;;;;;44.72;40.53;;;564.00;2432.00;;;;;;4973308;28;20102;-65
2023/08/19 04:25:44;;;;;;;42.17;38.22;;;563.90;2432.00;;;;;;4973310;28;20041;-65
2023/08/19 04:28:14;;;;;;;39.00;35.28;;;564.10;2432.00;;;;;;4972945;28;20051;-66
2023/08/19 04:30:40;;;;;;;38.80;35.00;;;564.10;2432.00;;;;;;4973027;28;20041;-66
2023/08/19 04:33:06;;;;;;;34.97;31.35;;;564.10;2432.00;;;;;;4972614;28;20026;-65
2023/08/19 04:35:31;;;;;;;36.42;32.95;;;589.00;2432.00;;;;;;4972937;28;20073;-65
2023/08/19 04:37:57;;;;;;;36.08;32.60;;;589.10;2432.00;;;;;;4972512;28;20038;-66
2023/08/19 04:40:23;;;;;;;34.78;31.40;;;589.50;2432.00;;;;;;4972576;28;20109;-64
2023/08/19 04:42:49;;;;;;;33.28;30.02;;;614.40;2432.00;;;;;;4972821;28;20034;-67
2023/08/19 04:45:16;;;;;;;33.17;29.88;;;614.60;2432.00;;;;;;4972480;28;20049;-66
2023/08/19 04:47:42;;;;;;;33.60;30.08;;;614.60;2432.00;;;;;;4972868;28;20023;-64
2023/08/19 04:50:09;;;;;;;35.15;31.38;;;614.60;2432.00;;;;;;4972533;28;20485;-65
2023/08/19 04:52:35;;;;;;;36.28;32.42;;;614.50;2432.00;;;;;;4972571;28;20031;-65
2023/08/19 04:55:01;;;;;;;33.47;29.80;;;614.40;2432.00;;;;;;4972634;28;20549;-65
2023/08/19 04:57:27;;;;;;;36.70;32.72;;;614.50;2432.00;;;;;;4971484;28;20034;-65
2023/08/19 04:59:53;;;;;;;36.88;33.13;;;614.60;2432.00;;;;;;4972139;28;20074;-65
2023/08/19 05:02:19;;;;;;;36.65;32.75;;;614.70;2432.00;;;;;;4972612;28;20073;-65
2023/08/19 05:04:45;;;;;;;36.83;33.10;;;614.80;2432.00;;;;;;4972365;28;20445;-64
2023/08/19 05:07:10;;;;;;;39.83;33.97;;;614.80;2432.00;;;;;;4971963;28;20385;-65
2023/08/19 05:09:36;;;;;;;38.15;33.95;;;614.70;2432.00;;;;;;4972039;28;20022;-63
2023/08/19 05:12:02;;;;;;;37.75;33.90;;;614.60;2432.00;;;;;;4972186;28;20035;-64
2023/08/19 05:14:28;;;;;;;37.58;33.88;;;614.50;2432.00;;;;;;4972012;28;20039;-65
2023/08/19 05:16:53;;;;;;;37.35;33.30;;;614.50;2432.00;;;;;;4972310;28;20019;-64
2023/08/19 05:19:20;;;;;;;40.03;35.83;;;614.60;2432.00;;;;;;4972303;28;20062;-63
2023/08/19 05:21:48;;;;;;;36.67;32.92;;;614.60;2432.00;;;;;;4971878;28;20027;-65
2023/08/19 05:24:15;;;;;;;37.78;34.05;;;614.70;2432.00;;;;;;4971652;28;20072;-65
2023/08/19 05:26:41;;;;;;;38.60;34.65;;;614.80;2432.00;;;;;;4972174;28;20544;-66
2023/08/19 05:29:07;;;;;;;38.53;34.53;;;614.80;2432.00;;;;;;4977627;28;20037;-64
2023/08/19 05:31:33;;;;;;;39.63;35.35;;;614.80;2432.00;;;;;;4971568;28;20118;-67
2023/08/19 05:33:59;;;;;;;36.97;33.08;;;615.10;2432.00;;;;;;4971736;28;20027;-64
2023/08/19 05:36:25;;;;;;;39.55;35.40;;;615.10;2432.00;;;;;;4971293;28;20026;-66
2023/08/19 05:38:50;;;;;;;38.35;34.20;;;615.30;2432.00;;;;;;4971655;28;20050;-66
2023/08/19 05:41:16;;;;;;;36.15;31.30;;;615.30;2432.00;;;;;;4971512;28;20038;-65
2023/08/19 05:43:42;;;;;;;36.75;33.05;;;615.30;2432.00;;;;;;4971704;28;20031;-64
2023/08/19 05:46:07;;;;;;;38.10;34.10;;;615.30;2432.00;;;;;;4984421;28;20019;-62
2023/08/19 05:48:33;;;;;;;39.83;33.25;;;640.00;2432.00;;;;;;4971088;28;20392;-62
2023/08/19 05:51:00;;;;;;;39.40;33.45;;;640.10;2432.00;;;;;;4971278;28;20023;-62
2023/08/19 05:53:26;;;;;;;38.00;33.20;;;640.30;2432.00;;;;;;4975573;28;20022;-62
2023/08/19 05:55:52;;;;;;;38.90;34.75;;;640.10;2432.00;;;;;;4980344;28;20422;-65
2023/08/19 05:58:18;;;;;;;37.83;33.60;;;640.10;2432.00;;;;;;4971098;28;20391;-64
2023/08/19 06:00:44;;;;;;;36.00;32.20;;;665.90;2432.00;;;;;;4970930;28;20466;-64
2023/08/19 06:03:10;;;;;;;35.08;31.40;;;743.00;2432.00;;;;;;4971178;28;20026;-65
2023/08/19 06:05:36;;;;;;;32.83;29.33;;;794.40;2432.00;;;;;;4971178;28;20081;-65
2023/08/19 06:08:04;;;;;;;32.72;29.77;;;845.40;2406.40;;;;;;4971022;28;20528;-62
2023/08/19 06:10:30;;;;;;;31.80;28.77;;;871.10;2150.40;;;;;;4970781;28;20026;-62
2023/08/19 06:12:56;;;;;;;32.83;29.65;;;896.60;2048.00;;;;;;4970906;28;20055;-65
2023/08/19 06:15:22;;;;;;;30.83;27.75;;;;;;;;;;4971058;28;20022;-66
2023/08/19 06:17:48;;;;;;;33.58;30.30;;;;;;;;;;4971163;28;20039;-64
2023/08/19 06:20:14;;;;;;;33.05;29.58;;;;;;;;;;4970667;28;20057;-62
2023/08/19 06:22:40;;;;;;;32.67;29.45;;;;;;;;;;4970746;28;20019;-63
2023/08/19 06:25:06;;;;;;;31.90;29.10;;;;;;;;;;4970279;28;20089;-64
2023/08/19 06:27:33;;;;;;;32.53;29.20;;;;;;;;;;4970198;28;20461;-65
2023/08/19 06:29:59;;;;;;;33.20;29.75;;;;;;;;;;4985232;28;20037;-66
2023/08/19 06:32:25;;;;;;;33.53;30.13;;;;;;;;;;4988015;28;20527;-64
2023/08/19 06:34:51;;;;;;;37.05;33.22;;;;;;;;;;4970806;28;20118;-63
2023/08/19 06:37:19;;;;;;;30.40;27.27;;;;;;;;;;4970493;28;20094;-65
2023/08/19 06:39:52;;;;;;;31.52;28.42;;;793.80;2355.20;;;;;;4970393;28;20547;-65
2023/08/19 06:42:19;;;;;;;32.90;29.37;;;768.90;2355.20;;;;;;4980161;28;20031;-64
2023/08/19 06:44:49;;;;;;;30.67;27.73;;;768.20;2432.00;;;;;;4989746;28;20022;-64
2023/08/19 06:47:21;;;;;;;30.67;27.20;;;743.00;2432.00;;;;;;4972558;28;20081;-65
2023/08/19 06:49:48;;;;;;;33.17;29.63;;;742.70;2432.00;;;;;;4989805;28;20029;-65
2023/08/19 06:52:14;;;;;;;30.98;28.10;;;743.00;2432.00;;;;;;4989848;28;20089;-65
2023/08/19 06:54:40;;;;;;;29.95;27.05;;;743.10;2432.00;;;;;;4990084;28;20472;-66
2023/08/19 06:57:09;;;;;;;27.95;25.35;;;819.30;2355.20;;;;;;4989769;28;20034;-66
2023/08/19 06:59:39;;;;;;;24.48;21.92;;;;;;;;;;4989782;28;20038;-64
2023/08/19 07:02:05;;;;;;;23.83;21.30;;;;;;;;;;4990026;28;20031;-65
2023/08/19 07:04:32;;;;;;;24.38;22.13;;;;;;;;;;4989474;28;20053;-65
2023/08/19 07:06:58;;;;;;;24.63;22.33;;;;;;;;;;4989368;28;20034;-64
2023/08/19 07:09:24;;;;;;;22.48;20.48;;;;;;;;;;4989456;28;20444;-64
2023/08/19 07:11:53;;;;;;;22.88;20.67;;;947.40;1894.40;;;;;;4989961;28;20031;-64
2023/08/19 07:14:19;;;;;;;21.75;19.63;;;947.30;1843.20;;;;;;4970157;28;20053;-67
2023/08/19 07:16:48;;;;;;;20.77;18.80;;;973.10;1792.00;;;;;;4970308;28;20027;-66
2023/08/19 07:19:20;;;;;;;22.25;20.48;;;998.80;1715.20;;;;;;4970089;28;20081;-65
2023/08/19 07:21:46;;;;;;;21.88;19.85;;;1024.60;1638.40;;;;;;4972290;28;20023;-66
2023/08/19 07:24:13;;;;;;;21.92;19.98;;;998.80;1664.00;;;;;;4974642;28;20034;-67
2023/08/19 07:26:39;;;;;;;21.77;19.65;;;999.20;1612.80;;;;;;4974279;28;20496;-64
2023/08/19 07:29:05;;;;;;;21.13;19.10;;;947.70;1715.20;;;;;;4987650;28;20034;-66
2023/08/19 07:31:32;;;;;;;22.52;20.33;;;;;;;;;;4984955;28;20034;-65
2023/08/19 07:33:59;;;;;;;22.08;19.92;;;;;;;;;;4974002;28;20034;-67
2023/08/19 07:36:26;;;;;;;20.20;18.17;;;896.50;1843.20;;;;;;4976542;28;20113;-66
2023/08/19 07:38:52;;;;;;;20.35;18.45;;;871.00;1920.00;;;;;;4987065;28;20100;-64
2023/08/19 07:41:19;;;;;;;21.60;19.70;;;;;;;;;;4973964;28;20552;-66
2023/08/19 07:43:46;;;;;;;21.38;19.48;;;870.50;1971.20;;;;;;4987431;28;20026;-66
2023/08/19 07:46:15;;;;;;;20.42;18.63;;;845.40;1971.20;;;;;;4991045;28;20095;-66
2023/08/19 07:48:44;;;;;;;19.88;18.17;;;819.60;2073.60;;;;;;4984082;28;20043;-66
2023/08/19 07:51:11;;;;;;;21.13;19.27;;;794.00;2150.40;;;;;;4976645;28;20030;-65
2023/08/19 07:53:37;;;;;;;22.98;20.85;;;768.90;2176.00;;;;;;4985550;28;20486;-62
2023/08/19 07:56:03;;;;;;;20.70;18.85;;;768.60;2201.60;;;;;;4989470;28;20389;-65
2023/08/19 07:58:29;;;;;;;21.05;19.20;;;768.00;2252.80;;;;;;4977446;28;20122;-63
2023/08/19 08:00:55;;;;;;;22.63;20.30;;;742.80;2329.60;;;;;;4970381;28;20126;-65
2023/08/19 08:03:20;;;;;;;21.77;19.85;;;743.00;2329.60;;;;;;4986061;28;20469;-62
2023/08/19 08:05:46;;;;;;;20.92;19.02;;;742.90;2329.60;;;;;;4994335;28;20038;-61
2023/08/19 08:08:12;;;;;;;20.13;18.20;;;742.80;2380.80;;;;;;4985717;28;20082;-63
2023/08/19 08:10:39;;;;;;;21.60;19.60;;;742.80;2355.20;;;;;;4988898;28;20031;-63
2023/08/19 08:13:05;;;;;;;21.33;19.52;;;742.60;2406.40;;;;;;4984415;28;20054;-64
2023/08/19 08:15:31;;;;;;;23.48;21.27;;;742.60;2432.00;;;;;;4980241;28;20038;-63
2023/08/19 08:17:57;;;;;;;21.00;19.10;;;742.60;2432.00;;;;;;4973531;28;20084;-64
2023/08/19 08:20:23;;;;;;;23.25;21.25;;;742.90;2432.00;;;;;;4974400;28;20035;-62
2023/08/19 08:22:48;;;;;;;24.17;21.98;;;743.10;2406.40;;;;;;4985790;28;20074;-63
2023/08/19 08:25:14;;;;;;;24.02;20.98;;;743.10;2406.40;;;;;;4972850;28;20543;-64
2023/08/19 08:27:40;;;;;;;21.77;19.88;;;768.20;2355.20;;;;;;4973216;28;20032;-65
2023/08/19 08:30:07;;;;;;;21.88;20.02;;;768.40;2355.20;;;;;;4988398;28;20026;-63
2023/08/19 08:32:33;;;;;;;22.63;20.73;;;793.70;2304.00;;;;;;4982114;28;20050;-63
2023/08/19 08:34:59;;;;;;;25.55;23.42;;;844.90;2150.40;;;;;;4972956;28;20121;-63
2023/08/19 08:37:25;;;;;;;22.35;20.38;;;922.00;1920.00;;;;;;4980994;28;20021;-66
2023/08/19 08:39:50;;;;;;;25.58;23.40;;;922.10;1920.00;;;;;;4992148;28;20034;-64
2023/08/19 08:42:17;;;;;;;24.25;22.02;;;922.10;1894.40;;;;;;4975078;28;20034;-65
2023/08/19 08:44:48;;;;;;;25.17;22.67;;;921.80;1920.00;;;;;;4991871;28;20030;-63
2023/08/19 08:47:14;;;;;;;29.90;26.10;;;871.30;1920.00;;;;;;4992259;28;20032;-65
2023/08/19 08:49:44;;;;;;;26.58;24.13;;;845.40;2022.40;;;;;;4992196;28;20018;-64
2023/08/19 08:52:10;;;;;;;27.90;25.17;;;845.30;2048.00;;;;;;4992001;28;20057;-65
2023/08/19 08:54:36;;;;;;;25.40;22.90;;;845.00;2073.60;;;;;;4991567;28;20090;-64
2023/08/19 08:57:02;;;;;;;26.10;23.73;;;845.70;2048.00;;;;;;4991195;28;20110;-65
2023/08/19 08:59:31;;;;;;;28.58;25.90;;;844.90;2099.20;;;;;;4991222;28;20121;-65
2023/08/19 09:01:58;;;;;;;27.48;24.80;;;845.40;2073.60;;;;;;4991533;28;20532;-65
2023/08/19 09:04:25;;;;;;;28.02;25.42;;;870.50;2022.40;;;;;;4991846;28;20121;-63
2023/08/19 09:07:02;;;;;;;27.50;24.95;;;870.70;1996.80;;;;;;4991670;28;20547;-64
2023/08/19 09:09:32;;;;;;;29.48;26.90;;;845.60;2048.00;;;;;;4991794;28;20462;-66
2023/08/19 09:11:59;;;;;;;28.50;26.00;;;870.50;2048.00;;;;;;4991877;28;20041;-65
2023/08/19 09:14:44;;;;;;;28.45;25.88;;;870.40;2022.40;;;;;;4991655;28;20473;-63
2023/08/19 09:17:14;;;;;;;28.27;25.75;;;870.70;2022.40;;;;;;4991865;28;20034;-65
2023/08/19 09:19:40;;;;;;;28.38;25.88;;;870.70;2022.40;;;;;;4991382;28;20035;-66
2023/08/19 09:22:19;;;;;;;26.95;24.67;;;870.70;1996.80;;;;;;4991526;28;20556;-63
2023/08/19 09:24:45;;;;;;;26.15;23.90;;;870.90;1996.80;;;;;;4991317;28;20026;-64
2023/08/19 09:27:11;;;;;;;25.80;23.70;;;870.90;1971.20;;;;;;4991612;28;20030;-63
2023/08/19 09:29:46;;;;;;;26.40;23.90;;;870.70;2022.40;;;;;;4991343;28;20060;-65
2023/08/19 09:32:12;;;;;;;25.58;23.38;;;871.10;1971.20;;;;;;4991551;28;20036;-65
2023/08/19 09:34:38;;;;;;;27.38;24.80;;;870.50;1996.80;;;;;;4991201;28;20104;-64
2023/08/19 09:37:04;;;;;;;28.25;25.48;;;845.40;2073.60;;;;;;4978439;28;20073;-63
2023/08/19 09:39:35;;;;;;;27.08;24.55;;;819.30;2124.80;;;;;;4991261;28;20433;-64
2023/08/19 09:42:02;;;;;;;26.35;23.98;;;;;;;;;;4988974;28;20120;-65
2023/08/19 09:44:29;;;;;;;26.63;24.23;;;;;;;;;;4989168;28;20041;-64
2023/08/19 09:46:56;;;;;;;25.42;23.20;;;;;;;;;;4989549;28;20079;-64
2023/08/19 09:49:22;;;;;;;26.40;24.20;;;;;;;;;;4989404;28;20385;-67
2023/08/19 09:51:55;;;;;;;27.48;24.92;;;;;;;;;;4989300;28;20026;-63
2023/08/19 09:54:21;;;;;;;26.42;24.05;;;;;;;;;;4989474;28;20117;-65
2023/08/19 09:56:55;;;;;;;29.73;26.63;;;;;;;;;;4989134;28;20551;-66
2023/08/19 09:59:21;;;;;;;28.65;25.92;;;;;;;;;;4976080;28;20400;-64
2023/08/19 10:01:48;;;;;;;28.15;25.35;;;;;;;;;;4989148;28;20109;-65
2023/08/19 10:04:15;;;;;;;26.92;24.42;;;;;;;;;;4988736;28;20033;-64
2023/08/19 10:06:44;;;;;;;26.73;24.35;;;;;;;;;;4988753;28;20033;-66
2023/08/19 10:09:11;;;;;;;25.30;23.08;;;;;;;;;;4988959;28;20038;-64
2023/08/19 10:11:38;;;;;;;27.10;24.40;;;;;;;;;;4989025;28;20034;-65
2023/08/19 10:14:05;;;;;;;26.90;24.33;;;;;;;;;;4988458;28;20061;-64
2023/08/19 10:16:36;;;;;;;26.67;24.33;;;;;;;;;;4989323;28;20026;-65
2023/08/19 10:19:03;;;;;;;25.35;23.25;;;;;;;;;;4988551;28;20049;-64
2023/08/19 10:21:30;;;;;;;26.85;24.75;;;;;;;;;;4988508;28;20037;-65
2023/08/19 10:23:57;;;;;;;26.77;24.38;;;;;;;;;;4988713;28;20026;-64
2023/08/19 10:26:23;;;;;;;27.25;24.73;;;;;;;;;;4975757;28;20086;-65
2023/08/19 10:29:05;;;;;;;25.15;22.65;;;;;;;;;;4986412;28;20026;-62
2023/08/19 10:31:32;;;;;;;25.93;23.43;;;;;;;;;;4975776;28;20053;-64
2023/08/19 10:33:58;;;;;;;25.95;23.65;;;;;;;;;;4976335;28;20772;-64
2023/08/19 10:36:29;;;;;;;24.10;22.02;;;;;;;;;;4982481;28;20022;-62
2023/08/19 10:38:56;;;;;;;25.23;22.77;;;;;;;;;;4976116;28;20046;-63
2023/08/19 10:41:33;;;;;;;24.33;22.17;;;;;;;;;;4972039;28;20035;-62
2023/08/19 10:43:59;;;;;;;24.73;22.48;;;;;;;;;;4976232;28;20027;-65
2023/08/19 10:46:38;;;;;;;23.23;21.08;;;;;;;;;;4980621;28;20040;-62
2023/08/19 10:49:08;;;;;;;22.60;20.63;;;;;;;;;;4971000;28;20129;-65
2023/08/19 10:51:45;;;;;;;24.17;21.95;;;;;;;;;;4978000;28;20054;-65
2023/08/19 10:54:12;;;;;;;24.85;22.50;;;;;;;;;;4980220;28;20022;-61
2023/08/19 10:56:43;;;;;;;22.80;20.60;;;;;;;;;;4972735;28;20466;-63
2023/08/19 10:59:10;;;;;;;24.70;21.70;;;;;;;;;;4974490;28;20034;-63
2023/08/19 11:01:36;;;;;;;23.55;21.30;;;;;;;;;;4980208;28;20030;-62
2023/08/19 11:04:03;;;;;;;24.85;21.40;;;;;;;;;;4976860;28;20124;-62
2023/08/19 11:06:29;;;;;;;21.80;19.80;;;;;;;;;;4959717;28;20567;-62
2023/08/19 11:08:59;;;;;;;22.38;20.25;;;;;;;;;;4976140;28;20061;-62
2023/08/19 11:11:25;;;;;;;23.90;21.65;;;;;;;;;;4969770;28;20128;-65
2023/08/19 11:13:52;;;;;;;21.90;19.95;;;;;;;;;;4960733;28;20059;-62
2023/08/19 11:16:18;;;;;;;23.25;21.23;;;;;;;;;;4977039;28;20032;-65
2023/08/19 11:18:45;;;;;;;23.23;20.75;;;;;;;;;;4980021;28;20034;-62
2023/08/19 11:21:12;;;;;;;22.55;20.35;;;;;;;;;;4977029;28;20022;-64
2023/08/19 11:23:39;;;;;;;21.58;19.40;;;;;;;;;;4972417;28;20051;-63
2023/08/19 11:26:05;;;;;;;23.15;20.88;;;;;;;;;;4977791;28;20105;-65
2023/08/19 11:28:31;;;;;;;21.40;19.45;;;;;;;;;;4978543;28;20033;-61
2023/08/19 11:30:58;;;;;;;21.10;19.30;;;;;;;;;;4977410;28;20665;-62
2023/08/19 11:33:26;;;;;;;23.27;20.88;;;;;;;;;;4978550;28;20023;-64
2023/08/19 11:35:52;;;;;;;23.13;19.42;;;;;;;;;;4975368;28;20465;-64
2023/08/19 11:38:18;;;;;;;20.23;18.50;;;;;;;;;;4977004;28;20042;-60
2023/08/19 11:40:44;;;;;;;20.35;18.48;;;;;;;;;;4972795;28;20027;-61
2023/08/19 11:43:13;;;;;;;23.02;20.40;;;;;;;;;;4977264;28;20018;-58
2023/08/19 11:45:40;;;;;;;21.75;19.77;;;;;;;;;;4973183;28;20061;-65
2023/08/19 11:48:07;;;;;;;23.05;20.92;;;;;;;;;;4974748;28;20469;-61
2023/08/19 11:50:35;;;;;;;21.05;19.20;;;;;;;;;;4983110;28;20027;-61
2023/08/19 11:53:02;;;;;;;21.60;19.05;;;;;;;;;;4979082;28;20105;-63
2023/08/19 11:55:28;;;;;;;21.33;19.38;;;;;;;;;;4976916;28;20065;-63
2023/08/19 11:57:54;;;;;;;20.85;18.95;;;;;;;;;;4976587;28;20544;-62
2023/08/19 12:00:21;;;;;;;20.67;18.65;;;;;;;;;;4979135;28;20509;-61
2023/08/19 12:02:47;;;;;;;21.80;19.75;;;;;;;;;;4984346;28;20031;-64
2023/08/19 12:05:23;;;;;;;22.02;19.92;;;;;;;;;;4978570;28;20030;-62
2023/08/19 12:07:50;;;;;;;22.65;20.52;;;;;;;;;;4980872;28;20015;-61
2023/08/19 12:10:16;;;;;;;20.25;18.33;;;;;;;;;;4982065;28;20030;-63
2023/08/19 12:12:58;;;;;;;21.88;19.80;;;;;;;;;;4983351;28;20101;-60
2023/08/19 12:15:24;;;;;;;22.52;19.85;;;;;;;;;;4982501;28;20023;-62
2023/08/19 12:17:51;;;;;;;20.70;18.77;;;;;;;;;;4983866;28;20326;-60
2023/08/19 12:20:17;;;;;;;22.00;20.05;;;;;;;;;;4987583;28;20053;-60
2023/08/19 12:22:43;;;;;;;22.17;20.08;;;;;;;;;;4987251;28;20069;-62
2023/08/19 12:25:10;;;;;;;22.15;19.95;;;;;;;;;;4993624;28;20420;-61
2023/08/19 12:27:36;;;;;;;21.48;19.38;;;;;;;;;;4988203;28;20029;-60
2023/08/19 12:30:02;;;;;;;21.40;19.38;;;;;;;;;;4980089;28;20031;-60
2023/08/19 12:32:28;;;;;;;22.65;20.42;;;;;;;;;;4975711;28;20541;-62